Time;durP1;ratioP1;P1;durP2;ratioP2;P2;SDS_P1;SDS_P2;PMS_P1;PMS_P2;Temp;Humidity;BMP_temperature;BMP_pressure;BME280_temperature;BME280_humidity;BME280_pressure;Samples;Min_cycle;Max_cycle;Signal;HPM_P1;HPM_P2
2022/06/13 00:01:02;;;;;;;5.63;2.83;;;;;;;23.13;41.30;101652.84;5014048;28;20400;-59
2022/06/13 00:03:32;;;;;;;5.87;2.83;;;;;;;23.12;41.30;101648.44;5014411;28;20456;-59
2022/06/13 00:05:58;;;;;;;7.35;3.50;;;;;;;23.13;41.65;101660.72;4998448;28;20472;-58
2022/06/13 00:08:26;;;;;;;4.90;2.70;;;;;;;23.13;41.31;101656.34;5014349;28;20392;-58
2022/06/13 00:10:59;;;;;;;4.57;2.80;;;;;;;23.13;41.55;101652.84;4997904;28;20381;-59
2022/06/13 00:13:25;;;;;;;5.25;2.65;;;;;;;23.13;41.81;101650.22;5013468;28;20393;-58
2022/06/13 00:15:50;;;;;;;5.17;2.70;;;;;;;23.12;41.40;101643.19;5014295;28;20900;-59
2022/06/13 00:18:18;;;;;;;5.97;2.90;;;;;;;23.13;41.46;101644.97;5013831;28;20370;-58
2022/06/13 00:20:46;;;;;;;6.72;3.10;;;;;;;23.14;41.42;101642.34;5013553;28;20377;-59
2022/06/13 00:23:12;;;;;;;6.30;2.70;;;;;;;23.13;41.72;101637.06;5006156;28;20387;-59
2022/06/13 00:25:39;;;;;;;5.43;2.45;;;;;;;23.14;41.39;101638.84;5010230;28;20403;-59
2022/06/13 00:28:05;;;;;;;6.55;3.00;;;;;;;23.12;41.65;101641.44;5023287;28;20866;-59
2022/06/13 00:30:32;;;;;;;4.23;2.83;;;;;;;23.13;41.62;101639.72;4982151;28;20379;-59
2022/06/13 00:33:03;;;;;;;6.30;3.05;;;;;;;23.13;41.56;101634.44;4994491;28;20394;-59
2022/06/13 00:35:33;;;;;;;6.30;3.00;;;;;;;23.12;41.37;101630.06;5011674;28;20387;-59
2022/06/13 00:37:59;;;;;;;7.03;2.78;;;;;;;23.13;41.72;101629.19;4994791;28;20391;-59
2022/06/13 00:40:24;;;;;;;4.27;2.57;;;;;;;23.13;41.74;101622.19;4977992;28;20383;-59
2022/06/13 00:42:53;;;;;;;5.10;2.73;;;;;;;23.14;41.29;101623.06;4994227;28;20446;-59
2022/06/13 00:45:20;;;;;;;5.47;2.87;;;;;;;23.14;41.79;101628.34;4977255;28;20478;-59
2022/06/13 00:47:47;;;;;;;6.10;3.10;;;;;;;23.14;41.56;101623.06;4977466;28;20379;-59
2022/06/13 00:50:18;;;;;;;6.13;3.10;;;;;;;23.14;41.70;101623.06;5011616;28;20395;-59
2022/06/13 00:53:07;;;;;;;5.55;2.88;;;;;;;23.14;41.37;101621.31;4993953;28;20814;-59
2022/06/13 00:55:56;;;;;;;5.40;2.80;;;;;;;23.10;41.87;101616.03;4965257;28;20430;-59
2022/06/13 00:58:21;;;;;;;5.25;2.70;;;;;;;23.13;41.77;101624.81;4994334;28;20838;-59
2022/06/13 01:00:50;;;;;;;5.03;2.67;;;;;;;23.13;41.59;101626.56;4993777;28;20462;-59
2022/06/13 01:03:16;;;;;;;5.15;2.75;;;;;;;23.14;41.79;101623.06;4993742;28;20387;-59
2022/06/13 01:05:48;;;;;;;4.95;2.78;;;;;;;23.11;41.76;101623.03;4994169;28;20533;-59
2022/06/13 01:08:15;;;;;;;5.35;2.92;;;;;;;23.13;41.97;101621.31;4977950;28;20379;-59
2022/06/13 01:13:51;;;;;;;5.78;2.80;;;;;;;23.14;41.39;101626.56;4996485;28;20441;-59
2022/06/13 01:16:34;;;;;;;5.15;2.60;;;;;;;23.14;41.88;101628.34;4978680;28;20387;-59
2022/06/13 01:19:41;;;;;;;5.38;2.53;;;;;;;23.12;41.86;101624.81;4977824;28;20399;-58
2022/06/13 01:22:46;;;;;;;4.93;2.80;;;;;;;23.05;41.62;101611.59;5011575;28;20405;-59
2022/06/13 01:25:45;;;;;;;4.93;3.00;;;;;;;23.13;41.46;101627.44;5013985;28;20367;-58
2022/06/13 01:28:22;;;;;;;4.85;2.50;;;;;;;23.14;41.86;101628.34;4997932;28;20386;-59
2022/06/13 01:30:56;;;;;;;5.28;2.90;;;;;;;23.13;42.08;101629.19;5014983;28;20460;-59
2022/06/13 01:33:37;;;;;;;6.40;2.72;;;;;;;23.14;41.95;101617.81;5015164;28;20426;-59
2022/06/13 01:36:24;;;;;;;5.20;2.60;;;;;;;23.10;41.48;101611.63;4997298;28;20436;-59
2022/06/13 01:39:17;;;;;;;5.30;2.80;;;;;;;23.13;41.61;101621.31;4997247;28;20383;-59
2022/06/13 01:42:07;;;;;;;4.80;2.42;;;;;;;23.07;42.26;101605.47;5014808;28;20437;-59
2022/06/13 01:44:43;;;;;;;6.25;2.75;;;;;;;23.14;41.85;101612.56;4997396;28;20466;-58
2022/06/13 01:47:11;;;;;;;5.43;2.72;;;;;;;23.13;42.13;101616.06;4980836;28;20388;-59
2022/06/13 01:49:46;;;;;;;6.20;2.63;;;;;;;23.13;41.81;101606.41;4996826;28;20418;-58
2022/06/13 01:52:50;;;;;;;5.90;3.27;;;;;;;23.12;41.90;101603.78;4997010;28;20395;-59
2022/06/13 01:55:32;;;;;;;4.80;2.63;;;;;;;23.05;42.24;101593.19;4996777;28;20410;-58
2022/06/13 01:58:28;;;;;;;4.70;2.70;;;;;;;23.13;42.02;101610.81;4997164;28;20517;-58
2022/06/13 02:01:02;;;;;;;4.95;2.65;;;;;;;23.12;41.66;101598.53;4996658;28;20926;-60
2022/06/13 02:03:41;;;;;;;5.97;2.67;;;;;;;23.12;41.93;101593.28;4980816;28;20415;-58
2022/06/13 02:06:14;;;;;;;4.25;2.45;;;;;;;23.00;41.68;101581.75;5014541;28;20470;-58
2022/06/13 02:08:44;;;;;;;4.78;2.53;;;;;;;23.11;41.94;101596.75;4980632;28;20395;-59
2022/06/13 02:11:17;;;;;;;5.15;2.70;;;;;;;23.12;41.84;101594.13;4980438;28;20800;-59
2022/06/13 02:13:44;;;;;;;4.77;2.60;;;;;;;23.13;41.92;101590.66;4996713;28;20456;-58
2022/06/13 02:16:19;;;;;;;4.20;2.60;;;;;;;23.12;41.91;101588.03;4996499;28;20470;-59
2022/06/13 02:18:53;;;;;;;5.53;2.90;;;;;;;23.13;42.14;101589.78;4996941;28;20379;-59
2022/06/13 02:21:20;;;;;;;4.82;2.45;;;;;;;23.12;42.04;101582.75;4980373;28;20382;-59
2022/06/13 02:23:49;;;;;;;5.75;2.88;;;;;;;23.14;41.82;101586.28;4996392;28;20398;-58
2022/06/13 02:26:24;;;;;;;4.50;2.53;;;;;;;23.13;42.26;101592.41;4996474;28;20406;-56
2022/06/13 02:28:54;;;;;;;4.88;2.70;;;;;;;23.12;41.74;101593.28;4980272;28;20430;-58
2022/06/13 02:31:44;;;;;;;6.15;2.50;;;;;;;23.13;41.72;101595.03;4996579;28;20398;-58
2022/06/13 02:34:28;;;;;;;5.03;2.50;;;;;;;23.12;41.96;101585.41;4996642;28;20437;-59
2022/06/13 02:37:16;;;;;;;4.88;2.83;;;;;;;23.12;41.83;101585.41;4980098;28;20819;-57
2022/06/13 02:39:51;;;;;;;5.00;2.63;;;;;;;23.12;42.18;101598.53;4996822;28;20411;-58
2022/06/13 02:42:25;;;;;;;5.50;2.85;;;;;;;23.12;41.97;101593.28;5013817;28;20375;-58
2022/06/13 02:45:03;;;;;;;5.45;3.28;;;;;;;23.13;41.59;101595.03;4996363;28;20387;-59
2022/06/13 02:47:34;;;;;;;6.15;2.80;;;;;;;23.13;42.29;101595.03;4979773;28;20387;-58
2022/06/13 02:50:20;;;;;;;4.13;2.50;;;;;;;23.13;42.04;101595.03;4979477;28;20497;-59
2022/06/13 02:53:01;;;;;;;4.90;2.55;;;;;;;23.13;41.90;101600.28;5013203;28;20401;-59
2022/06/13 02:55:41;;;;;;;4.63;2.72;;;;;;;23.12;42.27;101593.28;5013427;28;20415;-58
2022/06/13 02:58:10;;;;;;;4.63;2.60;;;;;;;23.12;42.06;101593.28;4979901;28;20379;-59
2022/06/13 03:00:54;;;;;;;4.88;2.83;;;;;;;23.13;41.77;101595.03;4996071;28;20375;-59
2022/06/13 03:03:41;;;;;;;4.80;2.60;;;;;;;23.13;41.79;101584.53;4995823;28;20744;-59
2022/06/13 03:06:22;;;;;;;5.40;2.60;;;;;;;23.13;42.50;101584.53;4995897;28;20718;-58
2022/06/13 03:09:00;;;;;;;4.75;2.58;;;;;;;23.12;41.79;101577.50;4995942;28;20387;-58
2022/06/13 03:11:44;;;;;;;5.57;2.63;;;;;;;23.12;42.13;101572.25;4979608;28;20492;-59
2022/06/13 03:14:20;;;;;;;4.82;2.60;;;;;;;23.12;42.22;101567.00;4995746;28;20391;-59
2022/06/13 03:16:56;;;;;;;4.82;2.58;;;;;;;23.12;41.72;101556.50;5013267;28;20394;-58
2022/06/13 03:19:37;;;;;;;5.78;2.75;;;;;;;23.11;42.24;101550.34;4995683;28;20744;-58
2022/06/13 03:22:17;;;;;;;5.15;2.47;;;;;;;23.11;42.13;101557.34;4979352;28;20387;-59
2022/06/13 03:25:13;;;;;;;5.18;2.55;;;;;;;23.10;42.07;101547.72;4995699;28;20390;-59
2022/06/13 03:27:44;;;;;;;6.03;2.80;;;;;;;23.12;42.29;101556.50;5012852;28;20729;-59
2022/06/13 03:30:13;;;;;;;4.50;2.53;;;;;;;23.12;42.13;101562.59;4995525;28;20390;-59
2022/06/13 03:33:39;;;;;;;5.00;2.30;;;;;;;23.14;42.09;101565.28;4995035;28;20383;-59
2022/06/13 03:35:35;;;;;;;4.55;2.85;;;;;;;23.12;42.14;101562.59;5000692;28;20386;-59
2022/06/13 03:38:02;;;;;;;4.97;2.53;;;;;;;23.13;41.85;101568.75;4995002;28;20860;-58
2022/06/13 03:40:28;;;;;;;4.35;2.60;;;;;;;23.12;42.32;101570.50;4994633;28;20856;-59
2022/06/13 03:43:22;;;;;;;4.77;2.53;;;;;;;23.13;41.85;101568.75;4994925;28;20372;-59
2022/06/13 03:45:51;;;;;;;5.38;2.67;;;;;;;23.12;41.85;101578.38;5008696;28;20452;-58
2022/06/13 03:48:19;;;;;;;5.00;2.70;;;;;;;23.13;42.07;101584.53;5010556;28;20473;-59
2022/06/13 03:50:55;;;;;;;5.07;2.67;;;;;;;22.99;42.39;101561.59;4919178;23;20959;-60
2022/06/13 03:53:26;;;;;;;4.95;2.60;;;;;;;23.13;42.22;101579.28;5028223;28;20806;-63
2022/06/13 03:56:02;;;;;;;5.22;2.60;;;;;;;23.13;41.86;101589.78;5032434;28;20442;-63
2022/06/13 03:58:38;;;;;;;4.97;2.90;;;;;;;23.12;42.23;101574.88;5035867;28;20376;-62
2022/06/13 04:01:17;;;;;;;5.82;2.95;;;;;;;23.13;42.38;101584.53;5014168;28;20416;-62
2022/06/13 04:03:42;;;;;;;6.18;3.40;;;;;;;23.10;42.34;101581.88;5030933;28;20457;-63
2022/06/13 04:06:31;;;;;;;5.70;2.63;;;;;;;23.12;41.84;101588.03;5031098;28;20488;-62
2022/06/13 04:09:04;;;;;;;4.38;2.40;;;;;;;23.13;42.21;101595.03;5014088;28;20487;-62
2022/06/13 04:11:57;;;;;;;7.25;3.33;;;;;;;23.13;42.02;101605.53;5030757;28;20409;-63
2022/06/13 04:14:40;;;;;;;4.57;2.60;;;;;;;23.13;42.41;101600.28;5031765;28;20929;-62
2022/06/13 04:17:34;;;;;;;6.00;2.80;;;;;;;23.13;42.72;101600.28;5030575;28;20499;-62
2022/06/13 04:20:30;;;;;;;4.03;2.43;;;;;;;23.13;42.20;101595.03;5014239;28;20400;-63
2022/06/13 04:23:10;;;;;;;4.33;2.70;;;;;;;23.03;42.14;101579.16;5014539;28;20409;-62
2022/06/13 04:25:52;;;;;;;4.45;2.83;;;;;;;23.04;42.64;101580.94;5014070;28;20431;-62
2022/06/13 04:28:33;;;;;;;5.13;2.72;;;;;;;23.11;42.33;101591.50;5013702;28;20392;-62
2022/06/13 04:31:02;;;;;;;6.22;2.80;;;;;;;23.12;41.99;101583.63;5014502;28;20750;-62
2022/06/13 04:33:36;;;;;;;3.88;2.40;;;;;;;23.13;42.11;101579.28;5035696;28;20397;-62
2022/06/13 04:36:07;;;;;;;6.13;2.75;;;;;;;23.11;42.00;101581.00;5019519;28;20764;-62
2022/06/13 04:38:38;;;;;;;5.93;2.70;;;;;;;23.10;42.04;101581.88;5034188;28;20370;-62
2022/06/13 04:41:10;;;;;;;5.87;2.80;;;;;;;23.13;41.91;101584.53;5013716;28;20431;-63
2022/06/13 04:43:46;;;;;;;4.00;2.55;;;;;;;23.13;42.44;101587.16;5013126;28;20389;-63
2022/06/13 04:46:25;;;;;;;4.90;2.70;;;;;;;23.14;42.25;101588.91;5013644;28;20459;-63
2022/06/13 04:48:57;;;;;;;5.18;2.70;;;;;;;23.13;42.03;101595.03;5030078;28;20939;-62
2022/06/13 04:51:28;;;;;;;4.85;2.70;;;;;;;23.05;42.39;101580.06;5029917;28;20389;-62
2022/06/13 04:54:04;;;;;;;5.78;2.70;;;;;;;23.13;42.07;101587.16;5013935;28;20393;-62
2022/06/13 04:56:35;;;;;;;5.90;2.70;;;;;;;23.11;42.33;101588.88;5030098;28;20805;-62
2022/06/13 04:59:08;;;;;;;5.03;2.58;;;;;;;23.12;42.55;101598.53;5030273;28;20370;-62
2022/06/13 05:01:46;;;;;;;4.50;2.40;;;;;;;23.11;42.43;101586.25;5013747;28;20794;-63
2022/06/13 05:04:25;;;;;;;5.30;3.00;;;;;;;23.13;42.44;101589.78;5030528;28;20385;-63
2022/06/13 05:06:56;;;;;;;3.70;2.33;;;;;;;23.14;41.90;101592.41;5013690;28;20420;-62
2022/06/13 05:09:53;;;;;;;4.63;2.50;;;;;;;23.14;42.52;101591.53;5013305;28;20821;-62
2022/06/13 05:12:25;;;;;;;4.63;2.50;;;;;;;23.15;41.79;101588.06;5027667;28;20906;-62
2022/06/13 05:15:06;;;;;;;5.07;2.60;;;;;;;23.15;42.02;101585.44;5042169;28;20733;-64
2022/06/13 05:17:52;;;;;;;3.72;2.40;;;;;;;23.07;42.31;101566.06;5049732;28;20713;-63
2022/06/13 05:20:45;;;;;;;4.37;2.50;;;;;;;23.18;42.32;101582.84;5050935;28;20427;-62
2022/06/13 05:23:29;;;;;;;4.97;2.90;;;;;;;23.18;41.96;101583.69;5032978;28;20379;-63
2022/06/13 05:26:02;;;;;;;5.15;2.63;;;;;;;23.18;42.39;101582.84;5047820;28;20389;-63
2022/06/13 05:28:31;;;;;;;4.20;2.70;;;;;;;23.13;42.26;101564.38;5039312;28;20868;-63
2022/06/13 05:31:04;;;;;;;5.00;2.60;;;;;;;23.19;42.56;101579.34;5027718;28;20375;-63
2022/06/13 05:33:36;;;;;;;4.80;2.63;;;;;;;23.19;42.24;101584.59;5033505;28;20395;-63
2022/06/13 05:36:05;;;;;;;4.53;3.00;;;;;;;23.20;42.42;101578.47;5033504;28;20407;-63
2022/06/13 05:38:34;;;;;;;4.00;2.40;;;;;;;23.17;42.49;101573.19;5030510;28;20449;-63
2022/06/13 05:40:59;;;;;;;3.92;2.53;;;;;;;23.18;42.40;101572.31;5029625;28;20504;-63
2022/06/13 05:43:35;;;;;;;4.00;2.35;;;;;;;23.19;42.06;101581.97;5039075;28;20484;-64
2022/06/13 05:46:06;;;;;;;6.22;2.60;;;;;;;23.19;42.01;101584.59;5042802;28;20404;-63
2022/06/13 05:48:34;;;;;;;4.90;2.70;;;;;;;23.21;41.98;101577.63;5030450;28;20370;-61
2022/06/13 05:51:00;;;;;;;6.53;2.88;;;;;;;23.20;42.85;101581.97;5048673;28;20391;-61
2022/06/13 05:53:29;;;;;;;5.70;2.70;;;;;;;23.22;42.35;101579.38;5019672;28;20385;-62
2022/06/13 05:56:03;;;;;;;5.93;2.58;;;;;;;23.22;42.77;101574.13;5040740;28;20396;-61
2022/06/13 05:58:31;;;;;;;5.07;2.63;;;;;;;23.22;42.66;101574.13;5036091;28;20390;-63
2022/06/13 06:01:03;;;;;;;6.28;2.50;;;;;;;23.23;42.88;101575.88;5017770;28;20403;-61
2022/06/13 06:03:32;;;;;;;6.13;2.88;;;;;;;23.25;42.23;101579.44;5031627;28;20404;-59
2022/06/13 06:06:03;;;;;;;7.72;3.63;;;;;;;23.25;42.24;101578.53;5021236;28;20392;-57
2022/06/13 06:08:32;;;;;;;8.38;3.67;;;;;;;23.25;42.39;101583.81;5016523;28;20785;-60
2022/06/13 06:10:58;;;;;;;6.50;2.85;;;;;;;23.26;42.57;101575.06;5026158;28;20973;-62
2022/06/13 06:13:28;;;;;;;5.63;3.00;;;;;;;23.27;42.63;101577.72;5039294;28;20401;-60
2022/06/13 06:15:59;;;;;;;6.77;3.10;;;;;;;23.25;42.44;101579.44;5021760;28;20382;-63
2022/06/13 06:18:29;;;;;;;6.22;2.90;;;;;;;23.28;42.83;101583.84;5030494;28;20789;-62
2022/06/13 06:20:58;;;;;;;5.97;2.90;;;;;;;23.28;42.73;101579.47;5014039;28;20415;-61
2022/06/13 06:23:28;;;;;;;6.22;2.95;;;;;;;23.32;42.30;101590.91;5030582;28;20718;-61
2022/06/13 06:25:54;;;;;;;6.32;3.08;;;;;;;23.27;42.89;101577.72;5035169;28;20447;-60
2022/06/13 06:28:22;;;;;;;7.10;3.27;;;;;;;23.37;42.91;101588.34;5030039;28;20377;-57
2022/06/13 06:30:51;;;;;;;6.40;3.40;;;;;;;23.37;42.84;101593.59;5030010;28;20375;-61
2022/06/13 06:33:16;;;;;;;7.65;3.60;;;;;;;23.27;42.65;101582.97;5034504;28;20399;-60
2022/06/13 06:35:42;;;;;;;8.90;3.13;;;;;;;23.35;42.55;101596.22;5051758;28;20384;-60
2022/06/13 06:38:07;;;;;;;6.75;2.92;;;;;;;23.33;42.97;101598.81;5031213;28;20385;-55
2022/06/13 06:40:36;;;;;;;6.53;3.13;;;;;;;23.36;42.97;101603.25;5043513;28;20382;-57
2022/06/13 06:43:01;;;;;;;7.38;3.00;;;;;;;23.34;42.47;101597.94;5040132;28;20449;-57
2022/06/13 06:45:30;;;;;;;6.15;3.17;;;;;;;23.34;42.56;101603.19;5048842;28;20371;-59
2022/06/13 06:47:58;;;;;;;6.35;3.03;;;;;;;23.32;42.44;101586.53;5027912;28;20418;-57
2022/06/13 06:50:30;;;;;;;7.28;2.92;;;;;;;23.34;42.55;101597.09;5046083;28;20384;-58
2022/06/13 06:52:55;;;;;;;8.75;3.40;;;;;;;23.19;42.31;101568.84;5031656;28;20388;-57
2022/06/13 07:01:01;;;;;;;6.00;3.20;;;;;;;23.32;42.42;101581.28;5052630;28;20371;-55
2022/06/13 07:03:32;;;;;;;8.70;2.97;;;;;;;23.33;42.65;101598.81;5035490;28;20418;-55
2022/06/13 07:06:01;;;;;;;7.60;3.30;;;;;;;23.32;42.48;101586.53;5034605;28;20733;-57
2022/06/13 07:08:29;;;;;;;6.32;2.75;;;;;;;23.34;42.73;101584.81;5035827;28;20379;-56
2022/06/13 07:11:53;;;;;;;9.27;3.08;;;;;;;23.33;42.07;101588.31;5053053;28;20372;-54
2022/06/13 07:13:48;;;;;;;6.68;3.10;;;;;;;23.37;42.36;101601.47;5051629;28;20408;-58
2022/06/13 07:16:13;;;;;;;7.50;2.88;;;;;;;23.36;41.66;101591.81;5035199;28;20375;-58
2022/06/13 07:18:44;;;;;;;7.05;2.92;;;;;;;23.36;41.48;101597.09;5052962;28;20387;-57
2022/06/13 07:21:15;;;;;;;7.43;2.88;;;;;;;23.37;41.48;101588.34;5051009;28;20457;-57
2022/06/13 07:23:43;;;;;;;9.05;3.13;;;;;;;23.36;41.58;101604.97;5034903;28;20380;-57
2022/06/13 07:26:14;;;;;;;7.53;3.20;;;;;;;23.32;41.71;101599.69;5053178;28;20844;-55
2022/06/13 07:28:44;;;;;;;7.65;3.30;;;;;;;23.31;41.64;101605.78;5035676;28;20380;-59
2022/06/13 07:31:22;;;;;;;5.53;2.50;;;;;;;23.31;42.29;101621.56;5035246;28;20407;-56
2022/06/13 07:33:49;;;;;;;6.65;3.10;;;;;;;23.30;42.33;101627.69;5052924;28;20490;-57
2022/06/13 07:36:19;;;;;;;6.15;3.17;;;;;;;23.29;41.77;101628.56;5051739;28;20776;-58
2022/06/13 07:38:48;;;;;;;7.15;3.30;;;;;;;23.29;41.60;101628.56;5034862;28;20451;-56
2022/06/13 07:41:20;;;;;;;9.30;3.10;;;;;;;23.28;41.75;101626.78;5034783;28;20466;-60
2022/06/13 07:43:52;;;;;;;6.75;2.90;;;;;;;23.31;41.28;101632.09;5051431;28;20728;-57
2022/06/13 07:46:23;;;;;;;6.15;2.70;;;;;;;23.32;41.47;101636.47;5051573;28;20419;-56
2022/06/13 07:48:53;;;;;;;8.67;3.07;;;;;;;23.31;41.46;101658.38;5035294;28;20452;-51
2022/06/13 07:51:28;;;;;;;5.83;2.73;;;;;;;23.32;40.89;101649.63;5034725;28;20496;-56
2022/06/13 07:54:01;;;;;;;5.68;2.50;;;;;;;23.32;41.12;101649.63;5034814;28;20475;-53
2022/06/13 07:56:38;;;;;;;5.38;2.50;;;;;;;23.33;41.06;101648.75;5034762;28;20434;-57
2022/06/13 07:59:08;;;;;;;5.43;2.40;;;;;;;23.32;41.77;101644.34;5051278;28;20426;-56
2022/06/13 08:01:37;;;;;;;7.05;3.33;;;;;;;23.32;41.57;101649.63;5034845;28;20434;-56
2022/06/13 08:04:10;;;;;;;4.65;2.45;;;;;;;23.29;41.64;101649.56;5050802;28;20405;-55
2022/06/13 08:06:41;;;;;;;5.70;2.50;;;;;;;23.27;42.05;101646.03;5051073;28;20387;-57
2022/06/13 08:09:13;;;;;;;6.15;2.53;;;;;;;23.29;41.46;101644.31;5034569;28;20375;-56
2022/06/13 08:11:52;;;;;;;6.45;2.80;;;;;;;23.29;40.97;101646.06;5050979;28;20479;-56
2022/06/13 08:14:18;;;;;;;4.78;2.30;;;;;;;23.30;41.68;101648.72;5050852;28;20890;-53
2022/06/13 08:16:47;;;;;;;4.55;2.25;;;;;;;23.30;41.25;101640.84;5050598;28;20752;-57
2022/06/13 08:19:15;;;;;;;5.77;2.70;;;;;;;23.29;41.61;101644.31;5034520;28;20384;-56
2022/06/13 08:21:46;;;;;;;4.95;2.50;;;;;;;23.29;41.76;101654.84;5033702;28;20417;-55
2022/06/13 08:24:11;;;;;;;5.88;2.33;;;;;;;23.23;41.39;101652.09;5051904;28;20411;-56
2022/06/13 08:26:36;;;;;;;4.00;2.00;;;;;;;23.29;42.01;101665.34;5050612;28;20903;-56
2022/06/13 08:29:07;;;;;;;5.63;2.50;;;;;;;23.30;41.29;101667.13;5033588;28;20386;-57
2022/06/13 08:31:36;;;;;;;4.93;2.43;;;;;;;23.28;41.42;101674.09;5050305;28;20368;-55
2022/06/13 08:34:06;;;;;;;5.88;2.58;;;;;;;23.11;41.91;101649.31;5033484;28;20792;-56
2022/06/13 08:36:43;;;;;;;4.63;2.33;;;;;;;23.27;42.14;101684.56;5034019;28;20380;-56
2022/06/13 08:39:11;;;;;;;5.22;2.40;;;;;;;23.26;42.02;101675.81;5034552;28;20876;-55
2022/06/13 08:41:50;;;;;;;4.90;2.58;;;;;;;23.26;42.20;101675.81;5051255;28;20384;-56
2022/06/13 08:44:21;;;;;;;3.93;2.20;;;;;;;23.27;41.55;101674.97;5051184;28;20801;-57
2022/06/13 08:47:04;;;;;;;4.95;2.40;;;;;;;23.28;41.83;101665.31;5051423;28;20713;-57
2022/06/13 08:49:42;;;;;;;4.20;2.20;;;;;;;23.29;41.66;101669.69;5033607;28;20398;-58
2022/06/13 08:52:30;;;;;;;4.43;2.30;;;;;;;23.27;41.68;101651.31;5033886;28;20386;-58
2022/06/13 08:55:02;;;;;;;3.83;2.30;;;;;;;23.21;41.42;101632.81;5049929;28;20879;-57
2022/06/13 08:57:36;;;;;;;3.67;2.35;;;;;;;23.30;41.59;101651.34;5050152;28;20407;-55
2022/06/13 09:00:12;;;;;;;4.05;2.20;;;;;;;23.31;41.81;101658.38;5050550;28;20450;-55
2022/06/13 09:02:53;;;;;;;5.18;2.40;;;;;;;23.31;41.86;101662.72;5049965;28;20445;-57
2022/06/13 09:05:49;;;;;;;4.45;2.00;;;;;;;23.31;41.17;101674.13;5049998;28;20718;-56
2022/06/13 09:08:32;;;;;;;3.97;2.05;;;;;;;23.30;41.74;101661.84;5049515;28;20930;-57
2022/06/13 09:11:10;;;;;;;3.70;2.00;;;;;;;23.30;42.06;101661.84;5033351;28;20399;-58
2022/06/13 09:13:53;;;;;;;3.38;2.10;;;;;;;23.29;41.88;101656.56;5049956;28;20400;-58
2022/06/13 09:16:28;;;;;;;3.88;2.00;;;;;;;23.22;41.80;101647.69;5050111;28;20383;-55
2022/06/13 09:19:14;;;;;;;4.05;2.10;;;;;;;23.29;41.39;101649.56;5033207;28;20392;-57
2022/06/13 09:22:09;;;;;;;3.53;2.08;;;;;;;23.31;41.80;101646.94;5033548;28;20378;-57
2022/06/13 09:24:59;;;;;;;3.70;2.15;;;;;;;23.31;41.08;101653.09;5046552;28;20933;-57
2022/06/13 09:27:39;;;;;;;3.58;1.90;;;;;;;23.25;41.11;101634.63;5051121;28;20862;-57
2022/06/13 09:30:09;;;;;;;3.75;2.13;;;;;;;23.30;41.56;101640.84;5049776;28;20836;-59
2022/06/13 09:32:47;;;;;;;2.70;1.70;;;;;;;23.19;41.41;101626.66;5033496;28;20503;-53
2022/06/13 09:35:21;;;;;;;5.00;2.03;;;;;;;23.32;41.59;101644.34;5033496;28;20799;-57
2022/06/13 09:37:53;;;;;;;3.85;2.00;;;;;;;23.33;41.22;101640.88;5033054;28;20386;-55
2022/06/13 09:40:24;;;;;;;3.60;2.00;;;;;;;23.34;41.94;101652.28;5049720;28;20367;-57
2022/06/13 09:42:59;;;;;;;4.13;2.00;;;;;;;23.34;41.71;101647.88;5033697;28;20390;-54
2022/06/13 09:45:50;;;;;;;4.00;1.90;;;;;;;23.33;41.39;101656.63;5051078;28;20828;-56
2022/06/13 09:48:15;;;;;;;3.25;1.90;;;;;;;23.33;41.92;101651.38;5053631;28;20372;-58
2022/06/13 09:51:06;;;;;;;2.90;1.70;;;;;;;23.31;41.71;101653.09;4893360;23;20817;-54
2022/06/13 09:54:28;;;;;;;3.15;1.83;;;;;;;23.29;41.18;101644.31;5013479;28;20394;-54
2022/06/13 09:57:28;;;;;;;3.22;1.70;;;;;;;23.35;41.17;101664.56;4953916;29;20392;-56
2022/06/13 09:59:59;;;;;;;2.77;1.60;;;;;;;23.34;41.39;101666.28;5014544;28;20783;-54
2022/06/13 10:02:30;;;;;;;2.83;1.60;;;;;;;23.34;41.26;101668.91;5013146;28;20383;-57
2022/06/13 10:05:29;;;;;;;2.70;1.50;;;;;;;23.34;41.19;101666.28;5013298;28;20378;-54
2022/06/13 10:08:16;;;;;;;3.05;1.88;;;;;;;23.36;41.50;101665.41;5014359;28;20399;-56
2022/06/13 10:11:08;;;;;;;2.85;1.52;;;;;;;23.36;40.64;101665.41;4996204;28;20389;-55
2022/06/13 10:14:06;;;;;;;2.70;1.60;;;;;;;23.34;40.82;101668.91;5012998;28;20393;-54
2022/06/13 10:16:36;;;;;;;2.80;1.90;;;;;;;23.36;40.84;101670.69;5014514;28;20454;-55
2022/06/13 10:19:13;;;;;;;3.13;1.48;;;;;;;23.34;40.73;101663.66;5014413;28;20454;-53
2022/06/13 10:21:43;;;;;;;3.47;1.80;;;;;;;23.37;41.47;101672.44;5013253;28;20410;-55
2022/06/13 10:24:18;;;;;;;3.10;1.50;;;;;;;23.38;41.26;101653.19;5014180;28;20464;-58
2022/06/13 10:27:13;;;;;;;2.50;1.50;;;;;;;23.40;40.81;101667.22;4996703;28;20446;-51
2022/06/13 10:29:49;;;;;;;2.22;1.42;;;;;;;23.39;40.87;101670.72;5012986;28;20387;-57
2022/06/13 10:32:27;;;;;;;2.15;1.50;;;;;;;23.36;40.86;101665.41;5012938;28;20386;-54
2022/06/13 10:35:14;;;;;;;3.60;1.60;;;;;;;23.39;41.11;101670.72;5013901;28;20907;-59
2022/06/13 10:37:57;;;;;;;2.35;1.30;;;;;;;23.39;40.76;101673.34;5012927;28;20413;-54
2022/06/13 10:40:26;;;;;;;2.05;1.40;;;;;;;23.36;40.86;101660.16;4996541;28;20908;-51
2022/06/13 10:42:51;;;;;;;2.17;1.30;;;;;;;23.37;40.32;101661.94;5012773;28;20387;-54
2022/06/13 10:45:17;;;;;;;2.77;1.57;;;;;;;23.40;40.25;101667.22;5012576;28;20482;-50
2022/06/13 10:47:52;;;;;;;3.10;1.65;;;;;;;23.34;40.35;101653.16;4996312;28;20434;-55
2022/06/13 10:50:29;;;;;;;2.33;1.40;;;;;;;23.39;40.67;101661.09;5012650;28;20471;-55
2022/06/13 10:53:01;;;;;;;2.13;1.30;;;;;;;23.41;40.75;101653.22;4995988;28;20399;-54
2022/06/13 10:55:30;;;;;;;2.03;1.30;;;;;;;23.40;40.50;101664.59;5012528;28;20379;-54
2022/06/13 10:58:12;;;;;;;2.70;1.60;;;;;;;23.26;40.38;101623.25;5012135;28;20441;-53
2022/06/13 11:00:39;;;;;;;3.00;1.90;;;;;;;23.39;40.13;101644.44;5012247;28;20718;-57
2022/06/13 11:03:13;;;;;;;2.85;1.50;;;;;;;23.39;40.19;101649.69;5012351;28;20375;-57
2022/06/13 11:05:49;;;;;;;2.60;1.40;;;;;;;23.41;39.98;101653.22;5012435;28;20852;-50
2022/06/13 11:08:14;;;;;;;2.15;1.38;;;;;;;23.42;39.86;101644.47;5012251;28;20382;-54
2022/06/13 11:10:58;;;;;;;2.77;1.30;;;;;;;23.41;40.20;101643.59;5012171;28;20458;-51
2022/06/13 11:13:36;;;;;;;2.20;1.40;;;;;;;23.41;39.94;101653.22;5012438;28;20403;-55
2022/06/13 11:22:39;;;;;;;3.08;1.60;;;;;;;23.41;40.14;101658.47;4996732;28;20497;-51
2022/06/13 11:25:24;;;;;;;2.78;1.30;;;;;;;23.41;39.40;101658.47;5012006;28;20789;-51
2022/06/13 11:28:00;;;;;;;3.20;1.48;;;;;;;23.41;39.81;101663.72;5011906;28;20779;-52
2022/06/13 11:30:28;;;;;;;3.60;1.23;;;;;;;23.42;39.96;101665.50;5013068;28;20859;-51
2022/06/13 11:33:05;;;;;;;2.08;1.40;;;;;;;23.42;39.80;101670.75;5011872;28;20438;-49
2022/06/13 11:35:45;;;;;;;2.42;1.30;;;;;;;23.42;39.07;101663.75;5012764;28;20494;-56
2022/06/13 11:38:15;;;;;;;2.35;1.50;;;;;;;23.43;39.32;101656.75;5011637;28;20363;-53
2022/06/13 11:40:42;;;;;;;1.77;1.20;;;;;;;23.43;39.39;101656.75;5011566;28;20473;-54
2022/06/13 11:43:18;;;;;;;2.30;1.30;;;;;;;23.43;39.59;101662.00;5011768;28;20387;-52
2022/06/13 11:45:43;;;;;;;3.53;1.60;;;;;;;23.32;39.65;101649.63;5011443;28;20402;-54
2022/06/13 11:48:13;;;;;;;3.77;1.70;;;;;;;23.40;38.74;101654.97;5011197;28;20859;-56
2022/06/13 11:50:39;;;;;;;1.73;1.10;;;;;;;23.41;38.40;101671.63;5011248;28;20387;-55
2022/06/13 11:55:59;;;;;;;1.92;1.27;;;;;;;23.41;38.65;101676.88;5011536;28;20365;-53
2022/06/13 11:58:27;;;;;;;1.23;1.13;;;;;;;23.43;38.72;101662.00;5011217;28;20461;-55
2022/06/13 12:01:00;;;;;;;1.85;1.50;;;;;;;23.42;39.12;101670.75;4994898;28;20384;-55
2022/06/13 12:03:26;;;;;;;2.17;1.13;;;;;;;23.42;39.16;101665.50;5011743;28;20429;-54
2022/06/13 12:06:10;;;;;;;2.20;1.33;;;;;;;23.32;38.66;101648.72;4994678;28;20429;-54
2022/06/13 12:08:36;;;;;;;2.45;1.13;;;;;;;23.45;38.94;101665.53;5010553;28;20379;-54
2022/06/13 12:11:05;;;;;;;2.10;1.55;;;;;;;23.46;38.33;101667.28;4994573;28;20389;-55
2022/06/13 12:13:34;;;;;;;1.83;1.10;;;;;;;23.45;38.94;101676.03;5010692;28;20469;-56
2022/06/13 12:16:17;;;;;;;2.22;1.20;;;;;;;23.44;38.64;101663.75;5010954;28;20429;-55
2022/06/13 12:18:49;;;;;;;2.42;1.10;;;;;;;23.28;38.72;101642.56;5012078;28;20411;-55